Time;durP1;ratioP1;P1;durP2;ratioP2;P2;SDS_P1;SDS_P2;PMS_P1;PMS_P2;Temp;Humidity;BMP_temperature;BMP_pressure;BME280_temperature;BME280_humidity;BME280_pressure;Samples;Min_cycle;Max_cycle;Signal;HPM_P1;HPM_P2
2022/06/24 00:00:40;;;;;;;43.20;38.60;;;21.50;72.50;;;;;;5031848;28;20043;-82
2022/06/24 00:03:06;;;;;;;45.22;40.83;;;21.50;72.30;;;;;;5042139;28;20230;-83
2022/06/24 00:05:34;;;;;;;43.20;38.92;;;21.60;72.20;;;;;;5041051;28;20037;-83
2022/06/24 00:08:01;;;;;;;43.85;39.45;;;21.60;72.20;;;;;;5039897;28;20037;-84
2022/06/24 00:10:33;;;;;;;46.13;41.33;;;21.60;72.10;;;;;;5034033;28;20160;-82
2022/06/24 00:12:59;;;;;;;43.47;39.05;;;21.60;72.10;;;;;;5041341;28;20086;-83
2022/06/24 00:15:27;;;;;;;44.63;40.28;;;21.60;72.30;;;;;;5039358;28;20086;-83
2022/06/24 00:17:54;;;;;;;41.08;36.78;;;21.60;72.40;;;;;;5040858;28;20069;-84
2022/06/24 00:20:21;;;;;;;50.38;45.28;;;21.60;72.40;;;;;;5038212;28;20085;-82
2022/06/24 00:22:52;;;;;;;50.75;45.65;;;21.60;72.40;;;;;;5038985;28;20044;-81
2022/06/24 00:25:23;;;;;;;50.33;45.22;;;21.60;72.40;;;;;;5037481;28;20041;-80
2022/06/24 00:28:07;;;;;;;51.47;46.38;;;21.60;72.50;;;;;;5045792;28;20816;-82
2022/06/24 00:30:41;;;;;;;49.63;44.75;;;21.60;72.70;;;;;;5046353;28;20040;-81
2022/06/24 00:33:15;;;;;;;46.45;41.88;;;21.60;72.80;;;;;;5060566;28;20032;-80
2022/06/24 00:35:47;;;;;;;49.92;44.67;;;21.60;72.90;;;;;;5050672;28;20095;-81
2022/06/24 00:38:22;;;;;;;45.53;40.85;;;21.60;72.90;;;;;;5038583;28;20633;-82
2022/06/24 00:40:50;;;;;;;46.03;41.35;;;21.60;73.00;;;;;;5043579;28;20055;-81
2022/06/24 00:43:40;;;;;;;50.30;44.97;;;21.60;73.00;;;;;;5041518;28;20120;-80
2022/06/24 00:46:17;;;;;;;48.35;43.40;;;21.60;72.90;;;;;;5051004;28;20049;-82
2022/06/24 00:48:48;;;;;;;48.88;44.00;;;21.50;72.90;;;;;;5047494;28;20049;-82
2022/06/24 00:51:14;;;;;;;48.53;43.53;;;21.60;73.00;;;;;;5043106;28;20456;-82
2022/06/24 00:53:47;;;;;;;47.83;42.72;;;21.50;73.20;;;;;;5035218;28;20129;-82
2022/06/24 00:56:16;;;;;;;50.85;45.58;;;21.50;73.40;;;;;;5030660;28;20033;-82
2022/06/24 00:58:57;;;;;;;55.85;50.10;;;21.50;73.40;;;;;;5046003;28;20044;-81
2022/06/24 01:01:30;;;;;;;59.50;53.22;;;21.50;73.50;;;;;;5035036;28;20060;-82
2022/06/24 01:03:57;;;;;;;59.08;52.97;;;21.50;73.40;;;;;;5035497;28;20113;-81
2022/06/24 01:06:27;;;;;;;61.70;55.08;;;21.40;73.40;;;;;;5047547;28;20053;-81
2022/06/24 01:08:53;;;;;;;61.72;55.28;;;21.40;73.60;;;;;;5041676;28;20064;-81
2022/06/24 01:11:30;;;;;;;58.10;52.10;;;21.40;73.50;;;;;;5031290;28;20037;-81
2022/06/24 01:13:56;;;;;;;59.90;53.65;;;21.40;73.50;;;;;;5040941;28;20028;-81
2022/06/24 01:16:25;;;;;;;55.17;49.25;;;21.30;73.70;;;;;;5040736;28;20045;-81
2022/06/24 01:18:53;;;;;;;61.25;54.67;;;21.30;74.20;;;;;;5037902;28;20155;-81
2022/06/24 01:21:32;;;;;;;58.15;52.28;;;21.20;74.60;;;;;;5038558;28;20488;-81
2022/06/24 01:24:07;;;;;;;59.15;53.05;;;21.10;74.90;;;;;;5041881;28;20053;-82
2022/06/24 01:26:37;;;;;;;58.15;52.03;;;21.20;75.20;;;;;;5043794;28;20041;-81
2022/06/24 01:29:03;;;;;;;58.05;51.65;;;21.20;75.20;;;;;;5037640;28;20389;-81
2022/06/24 01:31:30;;;;;;;54.05;48.28;;;21.10;75.40;;;;;;5035123;28;20091;-80
2022/06/24 01:33:56;;;;;;;55.58;49.83;;;21.10;75.50;;;;;;5038808;28;20036;-81
2022/06/24 01:36:22;;;;;;;52.30;46.92;;;21.10;75.80;;;;;;5039330;28;20037;-81
2022/06/24 01:38:48;;;;;;;55.58;49.75;;;21.10;75.70;;;;;;5039667;28;20059;-80
2022/06/24 01:41:14;;;;;;;64.57;57.65;;;21.10;76.30;;;;;;5032109;28;20045;-83
2022/06/24 01:43:39;;;;;;;58.55;52.58;;;21.10;77.70;;;;;;5036396;28;20068;-82
2022/06/24 01:46:06;;;;;;;63.53;56.80;;;21.10;78.00;;;;;;5037430;28;20063;-82
2022/06/24 01:48:32;;;;;;;56.53;50.45;;;21.10;78.20;;;;;;5038538;28;20071;-82
2022/06/24 01:50:58;;;;;;;58.25;52.15;;;21.10;79.10;;;;;;5037281;28;20086;-81
2022/06/24 01:53:24;;;;;;;54.88;48.97;;;21.10;79.60;;;;;;5032813;28;20044;-82
2022/06/24 01:55:49;;;;;;;58.78;52.60;;;21.10;80.50;;;;;;5046951;28;20037;-82
2022/06/24 01:58:15;;;;;;;56.03;50.17;;;21.10;80.80;;;;;;5049407;28;20120;-82
2022/06/24 02:00:41;;;;;;;60.92;54.30;;;21.00;80.20;;;;;;5036504;28;20145;-82
2022/06/24 02:03:07;;;;;;;63.00;56.25;;;21.00;80.30;;;;;;5035964;28;20120;-82
2022/06/24 02:05:33;;;;;;;55.15;49.55;;;21.00;80.20;;;;;;5036923;28;20476;-82
2022/06/24 02:07:59;;;;;;;58.67;52.17;;;20.90;80.30;;;;;;5045287;28;20047;-82
2022/06/24 02:13:26;;;;;;;62.20;55.65;;;20.80;81.00;;;;;;5034832;28;20227;-82
2022/06/24 02:16:01;;;;;;;57.30;51.20;;;20.70;81.20;;;;;;5029943;28;20068;-82
2022/06/24 02:18:28;;;;;;;64.55;57.63;;;20.70;81.60;;;;;;5030461;28;20040;-81
2022/06/24 02:20:54;;;;;;;62.25;55.72;;;20.70;82.00;;;;;;5043435;28;20056;-81
2022/06/24 02:23:21;;;;;;;63.03;56.20;;;20.60;82.00;;;;;;5043967;28;20663;-82
2022/06/24 02:25:48;;;;;;;64.65;57.55;;;20.60;82.10;;;;;;5035603;28;20045;-82
2022/06/24 02:28:15;;;;;;;62.60;56.10;;;20.60;82.50;;;;;;5050258;28;20041;-82
2022/06/24 02:30:42;;;;;;;66.57;59.65;;;20.60;82.80;;;;;;5054194;28;20091;-82
2022/06/24 02:33:08;;;;;;;63.90;57.20;;;20.60;83.00;;;;;;5054473;28;20073;-81
2022/06/24 02:35:35;;;;;;;62.42;55.78;;;20.50;83.10;;;;;;5045366;28;20076;-81
2022/06/24 02:38:00;;;;;;;66.32;59.28;;;20.50;83.40;;;;;;5047141;28;20033;-82
2022/06/24 02:43:16;;;;;;;68.22;60.75;;;20.40;83.50;;;;;;5044078;28;20129;-81
2022/06/24 02:45:43;;;;;;;67.38;60.15;;;20.40;83.60;;;;;;5046918;28;20102;-81
2022/06/24 02:48:08;;;;;;;66.65;59.42;;;20.30;83.70;;;;;;5047838;28;20044;-81
2022/06/24 02:50:45;;;;;;;63.40;56.50;;;20.20;84.00;;;;;;5041518;28;20684;-82
2022/06/24 02:53:12;;;;;;;67.20;60.00;;;20.20;84.10;;;;;;5044366;28;20067;-81
2022/06/24 02:55:38;;;;;;;64.72;57.97;;;20.20;84.10;;;;;;5042130;28;20068;-82
2022/06/24 02:58:05;;;;;;;70.10;62.88;;;20.20;84.50;;;;;;5042643;28;20122;-81
2022/06/24 03:00:31;;;;;;;69.22;61.70;;;20.20;84.50;;;;;;5043342;28;20108;-81
2022/06/24 03:02:57;;;;;;;67.18;58.80;;;20.20;84.40;;;;;;5042582;28;20091;-81
2022/06/24 03:05:23;;;;;;;67.72;60.53;;;20.20;84.60;;;;;;5044118;28;21775;-81
2022/06/24 03:07:49;;;;;;;68.30;61.28;;;20.30;84.80;;;;;;5042660;28;20025;-81
2022/06/24 03:10:15;;;;;;;65.18;58.17;;;20.30;84.90;;;;;;5033838;28;20061;-81
2022/06/24 03:12:41;;;;;;;67.93;60.78;;;20.20;85.10;;;;;;5045427;28;20037;-82
2022/06/24 03:15:08;;;;;;;62.80;56.03;;;20.30;85.20;;;;;;5048457;28;20032;-81
2022/06/24 03:17:34;;;;;;;66.25;59.53;;;20.20;85.10;;;;;;5047611;28;20037;-81
2022/06/24 03:20:00;;;;;;;62.88;56.28;;;20.20;85.10;;;;;;5045974;28;20059;-81
2022/06/24 03:22:25;;;;;;;60.15;53.63;;;20.20;85.20;;;;;;5041626;28;20033;-80
2022/06/24 03:24:51;;;;;;;61.65;55.20;;;20.20;85.20;;;;;;5041765;28;20876;-81
2022/06/24 03:27:17;;;;;;;61.90;55.10;;;20.20;85.20;;;;;;5036179;28;20136;-80
2022/06/24 03:29:43;;;;;;;61.47;54.72;;;20.20;85.20;;;;;;5041394;28;20075;-81
2022/06/24 03:32:08;;;;;;;64.90;57.80;;;20.20;85.40;;;;;;5051267;28;20505;-82
2022/06/24 03:34:34;;;;;;;60.45;53.95;;;20.10;85.00;;;;;;5043926;28;20114;-82
2022/06/24 03:37:01;;;;;;;63.53;56.30;;;20.10;85.30;;;;;;5043854;28;20033;-80
2022/06/24 03:39:27;;;;;;;58.60;52.42;;;20.10;85.50;;;;;;5048441;28;20047;-83
2022/06/24 03:41:53;;;;;;;64.82;58.05;;;20.10;85.50;;;;;;5040441;28;20033;-82
2022/06/24 03:44:18;;;;;;;62.17;55.40;;;20.10;85.60;;;;;;5039069;28;20086;-82
2022/06/24 03:46:44;;;;;;;63.60;57.00;;;20.10;85.70;;;;;;5036808;28;20049;-82
2022/06/24 03:49:10;;;;;;;61.05;54.55;;;20.10;85.90;;;;;;5041715;28;20041;-82
2022/06/24 03:51:36;;;;;;;66.18;59.20;;;20.10;86.10;;;;;;5041275;28;20037;-81
2022/06/24 03:54:02;;;;;;;56.13;50.10;;;20.00;86.10;;;;;;5039561;28;20231;-82
2022/06/24 03:56:28;;;;;;;55.25;49.53;;;20.00;86.10;;;;;;5064296;28;20488;-82
2022/06/24 03:58:53;;;;;;;56.95;50.90;;;19.90;86.00;;;;;;5042124;28;20036;-82
2022/06/24 04:01:19;;;;;;;55.85;49.95;;;20.00;86.10;;;;;;5040955;28;20087;-81
2022/06/24 04:03:45;;;;;;;52.20;46.90;;;19.90;86.10;;;;;;5042876;28;20092;-82
2022/06/24 04:06:10;;;;;;;52.90;47.42;;;19.90;86.00;;;;;;5043947;28;20056;-81
2022/06/24 04:08:36;;;;;;;50.58;45.22;;;19.80;86.00;;;;;;5042061;28;20531;-82
2022/06/24 04:11:13;;;;;;;54.67;47.30;;;19.80;86.10;;;;;;5040580;28;20083;-82
2022/06/24 04:13:38;;;;;;;52.75;47.22;;;19.80;86.20;;;;;;5049169;28;20090;-81
2022/06/24 04:16:04;;;;;;;49.35;44.15;;;19.80;86.20;;;;;;5037508;28;20048;-82
2022/06/24 04:18:30;;;;;;;46.72;41.65;;;19.80;86.20;;;;;;5044442;28;20063;-82
2022/06/24 04:20:56;;;;;;;48.15;43.03;;;19.80;86.00;;;;;;5036999;28;20486;-81
2022/06/24 04:23:22;;;;;;;45.10;40.45;;;19.70;86.00;;;;;;5039586;28;20191;-81
2022/06/24 04:25:48;;;;;;;45.90;41.00;;;19.80;86.00;;;;;;5037978;28;20411;-81
2022/06/24 04:28:14;;;;;;;43.33;37.63;;;19.70;85.90;;;;;;5037792;28;20132;-81
2022/06/24 04:30:40;;;;;;;35.85;32.08;;;19.80;86.00;;;;;;5045672;28;20132;-81
2022/06/24 04:33:06;;;;;;;34.00;29.77;;;19.80;85.80;;;;;;5038437;28;22096;-82
2022/06/24 04:35:31;;;;;;;31.48;28.38;;;19.70;85.10;;;;;;5043837;28;20041;-81
2022/06/24 04:37:57;;;;;;;31.38;28.08;;;19.80;85.20;;;;;;5037814;28;20033;-80
2022/06/24 04:40:23;;;;;;;30.60;27.40;;;19.70;85.20;;;;;;5036346;28;20059;-80
2022/06/24 04:42:49;;;;;;;30.05;26.85;;;19.70;85.30;;;;;;5042392;28;20749;-80
2022/06/24 04:45:15;;;;;;;33.65;30.05;;;19.70;85.20;;;;;;5040455;28;20037;-82
2022/06/24 04:47:40;;;;;;;35.45;31.67;;;19.70;85.30;;;;;;5042938;28;20049;-82
2022/06/24 04:50:07;;;;;;;40.28;36.03;;;19.70;85.40;;;;;;5039215;28;20144;-80
2022/06/24 04:52:33;;;;;;;37.30;33.33;;;19.80;85.50;;;;;;5046362;28;20098;-80
2022/06/24 04:55:00;;;;;;;38.58;34.67;;;19.80;85.60;;;;;;5044901;28;20043;-81
2022/06/24 04:57:26;;;;;;;38.33;34.30;;;19.80;85.40;;;;;;5044765;28;20124;-80
2022/06/24 04:59:51;;;;;;;36.13;32.53;;;19.90;85.30;;;;;;5042699;28;20036;-80
2022/06/24 05:02:17;;;;;;;36.38;32.67;;;19.90;85.20;;;;;;5040202;28;20055;-82
2022/06/24 05:04:43;;;;;;;33.67;29.75;;;20.00;85.00;;;;;;5046069;28;20048;-81
2022/06/24 05:07:09;;;;;;;32.33;28.75;;;20.10;85.10;;;;;;5041178;28;20049;-81
2022/06/24 05:09:35;;;;;;;31.77;28.48;;;20.10;85.10;;;;;;5042700;28;20120;-80
2022/06/24 05:12:00;;;;;;;31.75;28.58;;;20.10;84.90;;;;;;5040702;28;20036;-80
2022/06/24 05:14:27;;;;;;;28.00;25.25;;;20.20;84.00;;;;;;5036108;28;20037;-80
2022/06/24 05:16:53;;;;;;;27.52;24.60;;;20.30;83.90;;;;;;5038030;28;20405;-81
2022/06/24 05:19:19;;;;;;;27.38;24.52;;;20.40;83.50;;;;;;5041144;28;20033;-80
2022/06/24 05:21:44;;;;;;;25.13;22.52;;;20.40;83.20;;;;;;5044772;28;20484;-81
2022/06/24 05:24:10;;;;;;;27.38;24.65;;;20.60;82.80;;;;;;5039990;28;20594;-81
2022/06/24 05:26:36;;;;;;;22.38;20.05;;;20.70;82.50;;;;;;5035292;28;20044;-82
2022/06/24 05:29:02;;;;;;;22.52;20.23;;;20.60;81.50;;;;;;5041189;28;20592;-82
2022/06/24 05:31:27;;;;;;;19.85;17.85;;;20.60;81.70;;;;;;5037624;28;20044;-82
2022/06/24 05:33:53;;;;;;;21.02;18.88;;;20.70;81.90;;;;;;5042272;28;20032;-81
2022/06/24 05:36:19;;;;;;;18.85;16.80;;;20.80;81.60;;;;;;5038512;28;20489;-81
2022/06/24 05:38:46;;;;;;;19.63;17.63;;;20.70;81.70;;;;;;5035884;28;20087;-82
2022/06/24 05:41:12;;;;;;;22.45;20.10;;;20.80;81.70;;;;;;5041688;28;20045;-81
2022/06/24 05:43:38;;;;;;;27.25;21.88;;;20.80;81.70;;;;;;5044562;28;20783;-81
2022/06/24 05:46:04;;;;;;;23.83;21.27;;;20.90;80.70;;;;;;5042600;28;20148;-82
2022/06/24 05:48:30;;;;;;;20.75;18.55;;;20.80;80.60;;;;;;5038720;28;20128;-82
2022/06/24 05:50:56;;;;;;;20.42;18.45;;;20.80;80.90;;;;;;5042138;28;20040;-82
2022/06/24 05:56:06;;;;;;;20.88;18.25;;;21.20;79.90;;;;;;5045270;28;20036;-81
2022/06/24 05:58:32;;;;;;;19.50;17.05;;;21.50;79.20;;;;;;5046852;28;20045;-81
2022/06/24 06:00:58;;;;;;;19.88;17.88;;;21.70;78.20;;;;;;5043978;28;20086;-82
2022/06/24 06:03:25;;;;;;;19.80;17.70;;;21.80;78.50;;;;;;5052767;28;20033;-83
2022/06/24 06:05:51;;;;;;;18.83;16.30;;;21.80;77.90;;;;;;5050431;28;20052;-81
2022/06/24 06:08:17;;;;;;;18.45;15.95;;;21.90;78.30;;;;;;5046081;28;20543;-81
2022/06/24 06:10:44;;;;;;;17.98;14.63;;;21.90;78.30;;;;;;5043037;28;20051;-82
2022/06/24 06:13:10;;;;;;;15.68;14.07;;;21.70;77.90;;;;;;5042790;28;20392;-83
2022/06/24 06:15:36;;;;;;;17.85;15.10;;;21.70;78.60;;;;;;5045192;28;20045;-82
2022/06/24 06:18:02;;;;;;;16.05;14.38;;;21.70;78.80;;;;;;5042524;28;20037;-82
2022/06/24 06:20:28;;;;;;;16.52;13.00;;;21.80;78.00;;;;;;5041289;28;20033;-82
2022/06/24 06:22:53;;;;;;;14.30;11.57;;;22.00;77.50;;;;;;5039471;28;20052;-82
2022/06/24 06:25:19;;;;;;;13.30;10.90;;;22.20;77.20;;;;;;5041257;28;20040;-82
2022/06/24 06:27:45;;;;;;;14.43;12.48;;;22.60;75.60;;;;;;5049989;28;20067;-82
2022/06/24 06:30:11;;;;;;;15.10;13.45;;;22.80;74.90;;;;;;5042596;28;20162;-83
2022/06/24 06:32:37;;;;;;;15.82;13.45;;;23.10;74.20;;;;;;5040302;28;20116;-81
2022/06/24 06:35:04;;;;;;;17.35;14.13;;;23.10;74.20;;;;;;5044502;28;20033;-82
2022/06/24 06:37:30;;;;;;;15.48;13.73;;;23.30;73.10;;;;;;5045175;28;20037;-82
2022/06/24 06:39:56;;;;;;;15.20;12.60;;;23.30;72.70;;;;;;5038071;28;20039;-79
2022/06/24 06:42:22;;;;;;;15.30;12.98;;;23.10;72.60;;;;;;5055190;28;20402;-80
2022/06/24 06:44:48;;;;;;;16.90;13.32;;;23.00;72.70;;;;;;5041628;28;20029;-79
2022/06/24 06:47:13;;;;;;;15.13;12.90;;;22.60;74.30;;;;;;5042242;28;20053;-78
2022/06/24 06:49:39;;;;;;;15.32;13.27;;;22.60;74.60;;;;;;5043325;28;20158;-77
2022/06/24 06:52:05;;;;;;;18.38;13.70;;;22.50;74.50;;;;;;5040372;28;20172;-80
2022/06/24 06:54:31;;;;;;;17.35;13.63;;;22.30;75.20;;;;;;5041205;28;20070;-79
2022/06/24 06:56:57;;;;;;;14.23;11.93;;;22.30;75.90;;;;;;5041975;28;20514;-80
2022/06/24 06:59:22;;;;;;;14.93;12.63;;;22.20;76.20;;;;;;5037906;28;20041;-80
2022/06/24 07:01:48;;;;;;;17.48;12.77;;;22.20;76.10;;;;;;5040094;28;20037;-79
2022/06/24 07:04:15;;;;;;;16.95;12.32;;;22.20;76.10;;;;;;5042416;28;20041;-78
2022/06/24 07:06:40;;;;;;;15.90;11.95;;;22.10;76.50;;;;;;5039895;28;20048;-79
2022/06/24 07:09:06;;;;;;;16.38;12.23;;;22.10;76.70;;;;;;5039169;28;20498;-79
2022/06/24 07:11:32;;;;;;;17.05;12.50;;;22.20;77.00;;;;;;5040934;28;20045;-78
2022/06/24 07:13:58;;;;;;;15.30;11.43;;;22.40;76.70;;;;;;5038238;28;20119;-78
2022/06/24 07:16:23;;;;;;;13.98;10.23;;;22.40;76.30;;;;;;5039751;28;20540;-79
2022/06/24 07:18:49;;;;;;;12.77;10.18;;;22.30;76.70;;;;;;5040043;28;20033;-81
2022/06/24 07:21:15;;;;;;;14.93;9.13;;;22.20;76.50;;;;;;5036782;28;20503;-80
2022/06/24 07:23:41;;;;;;;11.57;8.73;;;22.10;76.80;;;;;;5040986;28;20033;-78
2022/06/24 07:26:07;;;;;;;10.50;8.77;;;22.20;77.00;;;;;;5033906;28;20064;-83
2022/06/24 07:28:38;;;;;;;12.50;10.60;;;22.10;77.20;;;;;;5041181;28;20120;-79
2022/06/24 07:31:14;;;;;;;16.55;13.88;;;22.00;77.30;;;;;;5033647;28;20056;-80
2022/06/24 07:33:40;;;;;;;17.00;15.15;;;21.90;77.40;;;;;;5040070;28;20122;-80
2022/06/24 07:36:06;;;;;;;18.40;16.45;;;21.80;77.60;;;;;;5037683;28;20551;-80
2022/06/24 07:38:32;;;;;;;18.15;16.23;;;21.80;78.00;;;;;;5056557;28;20033;-79
2022/06/24 07:40:58;;;;;;;18.45;16.52;;;21.60;78.40;;;;;;5041699;28;20041;-78
2022/06/24 07:43:24;;;;;;;18.77;16.77;;;21.60;78.90;;;;;;5041358;28;20090;-78
2022/06/24 07:45:52;;;;;;;21.58;18.08;;;21.50;79.20;;;;;;5042969;28;20391;-77
2022/06/24 07:48:17;;;;;;;19.83;17.77;;;21.40;80.10;;;;;;5039351;28;20049;-79
2022/06/24 07:50:43;;;;;;;19.85;17.63;;;21.40;80.20;;;;;;5037226;28;20397;-80
2022/06/24 07:53:09;;;;;;;34.25;21.73;;;21.30;80.60;;;;;;5038581;28;20037;-78
2022/06/24 07:58:19;;;;;;;24.17;15.23;;;20.90;83.50;;;;;;5039822;28;20048;-76
2022/06/24 08:00:44;;;;;;;17.08;12.80;;;20.50;84.00;;;;;;5041842;28;20037;-79
2022/06/24 08:03:10;;;;;;;16.98;12.10;;;19.90;83.20;;;;;;5043827;28;20041;-78
2022/06/24 08:05:36;;;;;;;15.63;10.75;;;19.10;85.00;;;;;;5036292;28;20100;-76
2022/06/24 08:08:02;;;;;;;11.32;7.93;;;18.30;86.60;;;;;;5042014;28;20503;-77
2022/06/24 08:10:28;;;;;;;11.05;9.00;;;17.90;87.30;;;;;;5042176;28;20103;-76
2022/06/24 08:12:54;;;;;;;9.05;6.32;;;17.70;87.60;;;;;;5039630;28;20124;-76
2022/06/24 08:15:19;;;;;;;11.82;8.00;;;17.60;87.10;;;;;;5038874;28;20395;-76
2022/06/24 08:17:45;;;;;;;18.15;16.05;;;17.50;87.40;;;;;;5041737;28;20048;-77
2022/06/24 08:20:11;;;;;;;24.35;19.17;;;17.50;87.80;;;;;;5040648;28;20452;-76
2022/06/24 08:22:37;;;;;;;26.67;22.85;;;17.60;87.70;;;;;;5042726;28;20039;-77
2022/06/24 08:25:03;;;;;;;27.88;24.73;;;17.60;87.80;;;;;;5042907;28;20032;-77
2022/06/24 08:27:29;;;;;;;26.58;23.23;;;17.70;88.00;;;;;;5040569;28;20077;-76
2022/06/24 08:29:54;;;;;;;29.10;23.83;;;17.70;87.80;;;;;;5038976;28;20053;-78
2022/06/24 08:32:20;;;;;;;28.20;24.80;;;17.70;87.20;;;;;;5042226;28;23187;-76
2022/06/24 08:34:46;;;;;;;27.42;23.98;;;17.70;87.50;;;;;;5043143;28;20381;-77
2022/06/24 08:37:11;;;;;;;26.58;23.45;;;17.80;87.70;;;;;;5037898;28;20041;-75
2022/06/24 08:39:37;;;;;;;27.05;23.75;;;17.80;87.30;;;;;;5039680;28;20047;-76
2022/06/24 08:42:04;;;;;;;26.90;23.83;;;17.70;87.30;;;;;;5038960;28;20032;-77
2022/06/24 08:44:30;;;;;;;25.92;22.58;;;17.60;87.80;;;;;;5046238;28;20044;-78
2022/06/24 08:46:55;;;;;;;27.60;21.70;;;17.60;87.50;;;;;;5037302;28;20125;-78
2022/06/24 08:49:21;;;;;;;29.17;23.15;;;17.50;87.50;;;;;;5039323;28;20071;-76
2022/06/24 08:51:49;;;;;;;25.83;21.92;;;17.60;87.80;;;;;;5045530;28;20076;-76
2022/06/24 08:54:19;;;;;;;25.85;21.77;;;17.60;88.00;;;;;;5045324;28;20120;-77
2022/06/24 08:56:45;;;;;;;25.00;22.17;;;17.60;87.80;;;;;;5041575;28;20123;-77
2022/06/24 08:59:11;;;;;;;24.58;20.48;;;17.60;87.60;;;;;;5037651;28;20445;-78
2022/06/24 09:01:40;;;;;;;21.70;19.27;;;17.60;87.60;;;;;;5033880;28;20098;-76
2022/06/24 09:04:07;;;;;;;25.40;20.38;;;17.70;87.70;;;;;;5041386;28;20056;-75
2022/06/24 09:06:38;;;;;;;20.73;18.42;;;17.80;87.40;;;;;;5032702;28;20048;-77
2022/06/24 09:09:04;;;;;;;23.35;20.27;;;18.10;87.90;;;;;;5039329;28;20503;-78
2022/06/24 09:11:41;;;;;;;23.67;19.98;;;18.40;87.80;;;;;;5037947;28;20041;-77
2022/06/24 09:14:08;;;;;;;20.63;18.05;;;18.60;87.00;;;;;;5041706;28;20484;-79
2022/06/24 09:16:37;;;;;;;21.83;19.50;;;18.70;85.10;;;;;;5043524;28;20041;-79
2022/06/24 09:19:05;;;;;;;23.30;20.98;;;19.00;85.70;;;;;;5038194;28;20059;-79
2022/06/24 09:21:39;;;;;;;22.25;19.80;;;19.30;87.00;;;;;;5040490;28;20665;-78
2022/06/24 09:24:06;;;;;;;22.00;18.75;;;19.50;86.00;;;;;;5037856;28;20036;-77
2022/06/24 09:26:34;;;;;;;22.90;20.58;;;19.60;84.60;;;;;;5038378;28;20052;-78
2022/06/24 09:29:01;;;;;;;23.13;20.63;;;20.00;85.70;;;;;;5036241;28;20387;-78
2022/06/24 09:31:28;;;;;;;25.33;22.67;;;20.10;84.00;;;;;;5037441;28;20044;-76
2022/06/24 09:33:55;;;;;;;26.52;23.67;;;20.30;84.30;;;;;;5038583;28;20037;-76
2022/06/24 09:36:26;;;;;;;25.95;23.48;;;20.40;84.40;;;;;;5040140;28;20047;-76
2022/06/24 09:38:59;;;;;;;26.17;23.63;;;20.70;84.40;;;;;;5042531;28;20048;-75
2022/06/24 09:41:25;;;;;;;25.95;23.33;;;21.00;82.50;;;;;;5039480;28;20044;-76
2022/06/24 09:43:52;;;;;;;25.58;23.10;;;21.40;82.00;;;;;;5036941;28;20037;-78
2022/06/24 09:46:23;;;;;;;25.00;22.58;;;21.40;81.30;;;;;;5034126;28;20036;-77
2022/06/24 09:48:57;;;;;;;22.33;20.23;;;21.50;79.30;;;;;;5027262;28;20076;-77
2022/06/24 09:51:23;;;;;;;24.00;21.48;;;21.50;80.00;;;;;;5032813;28;20043;-78
2022/06/24 09:53:51;;;;;;;22.95;20.80;;;21.60;79.30;;;;;;5037852;28;20037;-77
2022/06/24 09:56:17;;;;;;;20.38;18.42;;;21.90;78.00;;;;;;5034804;28;20065;-77
2022/06/24 10:00:40;;;;;;;21.58;19.48;;;22.30;78.60;;;;;;5037501;28;20499;-76
2022/06/24 10:01:33;;;;;;;19.48;17.67;;;22.70;76.50;;;;;;5036562;28;20036;-77
2022/06/24 10:04:05;;;;;;;19.40;17.60;;;22.90;75.10;;;;;;5035105;28;20029;-76
2022/06/24 10:06:36;;;;;;;14.70;13.20;;;23.20;74.00;;;;;;5037998;28;20893;-77
2022/06/24 10:09:06;;;;;;;17.38;15.75;;;23.50;73.20;;;;;;5033289;28;20034;-77
2022/06/24 10:14:20;;;;;;;15.57;13.65;;;24.40;71.50;;;;;;5527756;22;20057;-81
2022/06/24 10:16:49;;;;;;;15.10;13.65;;;24.80;69.90;;;;;;5012126;28;20152;-79
2022/06/24 10:19:18;;;;;;;13.50;11.30;;;24.60;68.60;;;;;;5010862;28;20037;-77
2022/06/24 10:21:46;;;;;;;11.02;9.93;;;24.60;69.30;;;;;;5011471;28;20037;-79
2022/06/24 10:24:14;;;;;;;11.73;10.45;;;24.50;68.90;;;;;;5011626;28;20045;-76
2022/06/24 10:26:47;;;;;;;11.18;9.90;;;24.50;67.70;;;;;;5011254;28;20548;-77
2022/06/24 10:29:18;;;;;;;10.20;7.45;;;24.10;70.30;;;;;;5010891;28;20059;-81
2022/06/24 10:31:50;;;;;;;12.02;9.20;;;24.00;69.00;;;;;;5007220;28;20132;-78
2022/06/24 10:34:31;;;;;;;11.05;9.32;;;23.90;70.20;;;;;;5008673;28;20125;-76
2022/06/24 10:36:56;;;;;;;10.10;8.00;;;24.10;70.40;;;;;;5008619;28;20041;-83
2022/06/24 10:39:23;;;;;;;10.93;7.57;;;24.50;69.30;;;;;;5010189;28;20041;-80
2022/06/24 10:42:06;;;;;;;8.82;6.28;;;24.50;67.60;;;;;;5014565;28;20105;-81
2022/06/24 10:44:34;;;;;;;9.20;7.13;;;24.80;66.80;;;;;;5014322;28;20116;-81
2022/06/24 10:47:08;;;;;;;9.02;5.93;;;24.50;65.20;;;;;;5015810;28;20442;-78
2022/06/24 10:49:55;;;;;;;10.35;5.53;;;24.90;66.60;;;;;;5012816;28;20095;-78
2022/06/24 10:52:34;;;;;;;7.68;5.15;;;25.10;63.40;;;;;;5013822;28;20049;-79
2022/06/24 10:55:15;;;;;;;7.15;4.45;;;24.60;65.90;;;;;;5015847;28;20045;-76
2022/06/24 10:57:47;;;;;;;7.35;3.95;;;24.20;65.20;;;;;;5011398;28;20546;-78
2022/06/24 11:00:17;;;;;;;6.95;4.65;;;24.30;67.40;;;;;;5012646;28;20118;-82
2022/06/24 11:02:45;;;;;;;9.60;5.10;;;24.30;69.20;;;;;;5012126;28;20051;-79
2022/06/24 11:05:22;;;;;;;6.43;3.90;;;24.40;66.40;;;;;;5008032;28;20037;-77
2022/06/24 11:07:49;;;;;;;6.90;3.97;;;25.00;65.90;;;;;;5014458;28;20068;-78
2022/06/24 11:10:19;;;;;;;5.60;3.30;;;25.50;64.40;;;;;;5010538;28;20117;-78
2022/06/24 11:12:58;;;;;;;5.18;3.47;;;25.70;62.30;;;;;;5014207;28;20045;-80
2022/06/24 11:15:38;;;;;;;4.70;2.90;;;26.00;62.60;;;;;;5013957;28;20247;-75
2022/06/24 11:18:11;;;;;;;5.88;2.92;;;25.80;61.20;;;;;;5018402;28;20041;-76
2022/06/24 11:20:39;;;;;;;5.78;2.75;;;25.40;60.50;;;;;;5022931;28;20037;-79
2022/06/24 11:23:10;;;;;;;5.07;2.92;;;25.20;61.80;;;;;;5011015;28;20030;-79
2022/06/24 11:25:39;;;;;;;3.78;2.28;;;25.50;60.80;;;;;;5016030;28;20341;-77
2022/06/24 11:28:15;;;;;;;4.00;2.40;;;25.60;59.20;;;;;;5020306;28;20049;-78
2022/06/24 11:30:41;;;;;;;4.82;2.10;;;25.70;59.20;;;;;;5016818;28;20049;-80
2022/06/24 11:33:07;;;;;;;3.72;2.10;;;25.80;60.80;;;;;;5023082;28;20044;-79
2022/06/24 11:35:33;;;;;;;4.55;1.95;;;25.60;61.20;;;;;;5016366;28;20033;-81
2022/06/24 11:38:04;;;;;;;4.00;1.95;;;25.60;60.00;;;;;;5016776;28;20113;-81
2022/06/24 11:40:32;;;;;;;3.80;2.03;;;25.60;60.60;;;;;;5015922;28;20044;-80
2022/06/24 11:43:07;;;;;;;3.83;2.10;;;25.60;60.40;;;;;;5016290;28;20375;-79
2022/06/24 11:45:38;;;;;;;3.38;1.80;;;25.60;62.10;;;;;;5020564;28;20029;-80
2022/06/24 11:48:05;;;;;;;3.08;1.80;;;25.60;63.30;;;;;;5018704;28;20033;-81
2022/06/24 11:50:32;;;;;;;3.05;1.50;;;25.60;62.50;;;;;;5018893;28;20044;-80
2022/06/24 11:52:59;;;;;;;3.75;1.75;;;26.10;59.90;;;;;;5021685;28;20045;-78
2022/06/24 11:55:33;;;;;;;3.88;1.73;;;26.50;57.10;;;;;;5011871;28;20108;-79
2022/06/24 11:58:02;;;;;;;2.97;1.60;;;26.90;55.50;;;;;;5017994;28;20062;-79
2022/06/24 12:00:32;;;;;;;2.38;1.40;;;27.00;53.80;;;;;;5019581;28;20226;-79
2022/06/24 12:02:59;;;;;;;3.65;1.50;;;26.80;56.10;;;;;;5019878;28;20111;-80
2022/06/24 12:05:30;;;;;;;2.35;1.42;;;27.00;56.40;;;;;;5015214;28;20038;-78
2022/06/24 12:07:57;;;;;;;2.25;1.50;;;26.40;56.30;;;;;;5023837;28;20103;-78
2022/06/24 12:10:23;;;;;;;2.97;1.50;;;26.10;58.80;;;;;;5013954;28;20033;-80
2022/06/24 12:13:05;;;;;;;2.58;1.45;;;26.10;57.90;;;;;;5012094;28;20033;-80
2022/06/24 12:15:37;;;;;;;3.03;1.55;;;25.90;57.70;;;;;;5011173;28;20046;-81
2022/06/24 12:18:17;;;;;;;3.05;1.48;;;25.80;56.90;;;;;;5023672;28;20037;-80
2022/06/24 12:20:43;;;;;;;3.83;1.48;;;25.90;55.60;;;;;;5022913;28;20055;-78
2022/06/24 12:23:19;;;;;;;2.88;1.20;;;26.00;56.90;;;;;;5018708;28;20491;-80
2022/06/24 12:25:49;;;;;;;2.47;1.40;;;26.30;56.00;;;;;;5017251;28;20033;-81
2022/06/24 12:28:22;;;;;;;2.33;1.42;;;26.30;56.20;;;;;;5021667;28;20128;-79
2022/06/24 12:31:08;;;;;;;3.45;1.67;;;26.10;56.80;;;;;;5013634;28;20116;-81
2022/06/24 12:33:34;;;;;;;3.38;1.30;;;26.50;55.70;;;;;;5032651;28;20033;-84
2022/06/24 12:36:13;;;;;;;2.60;1.10;;;26.30;55.50;;;;;;5013506;28;20139;-78
2022/06/24 12:38:46;;;;;;;3.17;1.20;;;26.00;56.10;;;;;;5017268;28;20052;-78
2022/06/24 12:41:17;;;;;;;1.10;1.00;;;25.60;57.50;;;;;;5013542;28;20115;-79
2022/06/24 12:44:03;;;;;;;2.03;1.50;;;25.30;56.40;;;;;;5019654;28;20132;-78
2022/06/24 12:46:34;;;;;;;2.35;1.20;;;25.20;59.20;;;;;;5016826;28;20077;-78
2022/06/24 12:51:47;;;;;;;3.90;1.58;;;25.00;60.00;;;;;;5016063;28;20144;-78